createdAt,value
2018-04-30T00:01:23.830Z,13.69
2018-04-30T00:03:51.429Z,13.53
2018-04-30T00:06:19.057Z,13.63
2018-04-30T00:08:46.598Z,13.44
2018-04-30T00:11:15.092Z,13.45
2018-04-30T00:13:42.631Z,13.41
2018-04-30T00:16:10.210Z,13.43
2018-04-30T00:18:37.745Z,13.32
2018-04-30T00:21:05.386Z,13.25
2018-04-30T00:23:32.990Z,13.16
2018-04-30T00:26:00.546Z,12.97
2018-04-30T00:28:28.088Z,12.77
2018-04-30T00:30:55.734Z,12.56
2018-04-30T00:33:23.325Z,12.34
2018-04-30T00:35:50.864Z,12.25
2018-04-30T00:38:18.416Z,12.05
2018-04-30T00:40:46.050Z,11.98
2018-04-30T00:43:14.450Z,11.92
2018-04-30T00:45:42.054Z,11.85
2018-04-30T00:48:09.654Z,11.79
2018-04-30T00:50:37.262Z,11.79
2018-04-30T00:53:04.774Z,11.66
2018-04-30T00:55:32.415Z,11.79
2018-04-30T00:57:59.993Z,11.81
2018-04-30T01:00:27.533Z,11.78
2018-04-30T01:02:55.178Z,11.69
2018-04-30T01:05:22.713Z,11.62
2018-04-30T01:07:50.314Z,11.63
2018-04-30T01:10:18.654Z,11.54
2018-04-30T01:12:46.266Z,11.38
2018-04-30T01:15:13.858Z,11.37
2018-04-30T01:17:41.462Z,11.31
2018-04-30T01:20:09.158Z,11.30
2018-04-30T01:22:36.694Z,11.22
2018-04-30T01:25:04.307Z,11.25
2018-04-30T01:27:31.907Z,11.29
2018-04-30T01:29:59.452Z,11.16
2018-04-30T01:32:27.042Z,10.96
2018-04-30T01:34:56.458Z,10.87
2018-04-30T01:37:24.058Z,10.69
2018-04-30T01:39:51.653Z,10.72
2018-04-30T01:42:19.303Z,10.65
2018-04-30T01:44:46.842Z,10.60
2018-04-30T01:47:14.444Z,10.54
2018-04-30T01:49:42.037Z,10.45
2018-04-30T01:52:09.663Z,10.40
2018-04-30T01:54:38.266Z,10.42
2018-04-30T01:57:05.931Z,10.42
2018-04-30T01:59:33.547Z,10.41
2018-04-30T02:02:01.152Z,10.43
2018-04-30T02:04:28.763Z,10.38
2018-04-30T02:06:56.317Z,10.35
2018-04-30T02:09:23.926Z,10.31
2018-04-30T02:11:51.518Z,10.26
2018-04-30T02:14:19.130Z,10.16
2018-04-30T02:16:46.806Z,10.08
2018-04-30T02:19:14.354Z,10.05
2018-04-30T02:21:41.956Z,10.01
2018-04-30T02:24:09.501Z,9.96
2018-04-30T02:26:37.114Z,9.92
2018-04-30T02:29:04.655Z,9.87
2018-04-30T02:31:32.323Z,10.05
2018-04-30T02:34:00.187Z,10.17
2018-04-30T02:36:27.802Z,10.35
2018-04-30T02:38:55.358Z,10.48
2018-04-30T02:41:22.969Z,10.43
2018-04-30T02:43:50.540Z,10.54
2018-04-30T02:46:18.130Z,10.62
2018-04-30T02:48:45.674Z,10.52
2018-04-30T02:51:13.215Z,10.37
2018-04-30T02:53:40.874Z,10.30
2018-04-30T02:56:08.419Z,10.29
2018-04-30T02:58:36.004Z,10.48
2018-04-30T03:01:03.698Z,10.65
2018-04-30T03:03:31.312Z,10.49
2018-04-30T03:05:59.778Z,10.20
2018-04-30T03:08:27.483Z,9.99
2018-04-30T03:10:55.091Z,9.83
2018-04-30T03:13:22.702Z,9.80
2018-04-30T03:15:50.303Z,9.74
2018-04-30T03:18:17.848Z,9.76
2018-04-30T03:20:45.459Z,9.78
2018-04-30T03:23:13.110Z,9.87
2018-04-30T03:25:40.717Z,9.97
2018-04-30T03:28:09.204Z,10.07
2018-04-30T03:30:36.834Z,10.18
2018-04-30T03:33:05.204Z,10.24
2018-04-30T03:35:32.754Z,10.30
2018-04-30T03:38:00.302Z,10.32
2018-04-30T03:40:27.962Z,10.50
2018-04-30T03:42:55.571Z,10.53
2018-04-30T03:45:23.153Z,10.59
2018-04-30T03:47:52.754Z,10.70
2018-04-30T03:50:20.366Z,10.77
2018-04-30T03:52:47.911Z,10.85
2018-04-30T03:55:15.590Z,11.01
2018-04-30T03:57:43.198Z,11.24
2018-04-30T04:00:22.398Z,11.37
2018-04-30T04:03:01.658Z,11.45
2018-04-30T04:05:41.010Z,11.50
2018-04-30T04:08:08.618Z,11.53
2018-04-30T04:10:36.166Z,11.68
2018-04-30T04:13:03.761Z,11.68
2018-04-30T04:15:32.394Z,11.75
2018-04-30T04:18:00.008Z,11.80
2018-04-30T04:20:27.626Z,11.95
2018-04-30T04:22:55.266Z,11.98
2018-04-30T04:25:22.877Z,12.10
2018-04-30T04:27:50.426Z,12.28
2018-04-30T04:30:18.018Z,12.22
2018-04-30T04:32:45.696Z,12.25
2018-04-30T04:35:13.237Z,12.35
2018-04-30T04:37:40.826Z,12.45
2018-04-30T04:40:08.373Z,12.32
2018-04-30T04:42:35.987Z,12.51
2018-04-30T04:45:03.530Z,12.68
2018-04-30T04:47:31.205Z,12.86
2018-04-30T04:49:58.764Z,12.81
2018-04-30T04:52:26.334Z,12.67
2018-04-30T04:54:54.092Z,12.93
2018-04-30T04:57:21.698Z,13.02
2018-04-30T04:59:49.243Z,13.02
2018-04-30T05:02:17.885Z,13.24
2018-04-30T05:04:46.238Z,13.34
2018-04-30T05:07:13.786Z,13.38
2018-04-30T05:09:41.391Z,13.29
2018-04-30T05:12:10.038Z,13.33
2018-04-30T05:14:37.653Z,13.35
2018-04-30T05:17:05.303Z,13.53
2018-04-30T05:19:33.441Z,13.69
2018-04-30T05:22:01.650Z,13.72
2018-04-30T05:24:29.274Z,13.76
2018-04-30T05:26:57.818Z,13.92
2018-04-30T05:29:25.412Z,13.92
2018-04-30T05:31:53.094Z,14.07
2018-04-30T05:34:21.303Z,14.24
2018-04-30T05:36:49.934Z,14.17
2018-04-30T05:39:18.637Z,14.46
2018-04-30T05:41:46.626Z,14.35
2018-04-30T05:44:15.155Z,14.60
2018-04-30T05:46:42.762Z,14.96
2018-04-30T05:49:10.353Z,15.09
2018-04-30T05:51:38.038Z,15.35
2018-04-30T05:54:05.578Z,15.49
2018-04-30T05:56:33.194Z,15.50
2018-04-30T05:59:00.821Z,15.57
2018-04-30T06:01:28.382Z,15.60
2018-04-30T06:03:55.984Z,15.87
2018-04-30T06:06:23.619Z,16.29
2018-04-30T06:08:51.238Z,16.75
2018-04-30T06:11:18.794Z,16.98
2018-04-30T06:13:46.402Z,17.50
2018-04-30T06:16:13.960Z,17.79
2018-04-30T06:18:41.748Z,18.05
2018-04-30T06:21:10.292Z,18.08
2018-04-30T06:23:37.875Z,17.84
2018-04-30T06:26:05.480Z,17.72
2018-04-30T06:28:34.008Z,17.88
2018-04-30T06:31:01.607Z,18.17
2018-04-30T06:33:29.221Z,17.97
2018-04-30T06:35:56.846Z,18.35
2018-04-30T06:38:24.461Z,18.20
2018-04-30T06:40:52.069Z,18.41
2018-04-30T06:43:19.671Z,18.38
2018-04-30T06:45:48.119Z,18.47
2018-04-30T06:48:15.733Z,18.81
2018-04-30T06:50:43.287Z,19.36
2018-04-30T06:53:11.670Z,19.55
2018-04-30T06:55:39.218Z,19.39
2018-04-30T06:58:06.836Z,19.41
2018-04-30T07:00:34.450Z,19.60
2018-04-30T07:03:01.997Z,19.91
2018-04-30T07:05:29.664Z,20.28
2018-04-30T07:07:57.270Z,19.60
2018-04-30T07:10:24.861Z,19.88
2018-04-30T07:12:52.406Z,19.52
2018-04-30T07:15:19.990Z,19.50
2018-04-30T07:17:47.538Z,20.12
2018-04-30T07:20:15.138Z,20.64
2018-04-30T07:22:42.706Z,20.55
2018-04-30T07:25:11.057Z,22.06
2018-04-30T07:27:38.745Z,23.51
2018-04-30T07:30:06.252Z,24.31
2018-04-30T07:32:33.806Z,25.35
2018-04-30T07:35:01.405Z,25.84
2018-04-30T07:37:29.039Z,26.93
2018-04-30T07:39:56.578Z,27.66
2018-04-30T07:42:24.140Z,26.72
2018-04-30T07:44:51.713Z,25.83
2018-04-30T07:47:19.286Z,25.58
2018-04-30T07:49:47.696Z,25.63
2018-04-30T07:52:15.250Z,27.44
2018-04-30T07:54:42.840Z,28.64
2018-04-30T07:57:10.470Z,29.93
2018-04-30T07:59:38.098Z,29.36
2018-04-30T08:02:05.650Z,29.06
2018-04-30T08:04:33.333Z,30.46
2018-04-30T08:07:00.942Z,31.75
2018-04-30T08:09:28.499Z,30.52
2018-04-30T08:11:56.163Z,30.26
2018-04-30T08:14:24.692Z,30.11
2018-04-30T08:16:53.107Z,30.01
2018-04-30T08:19:21.739Z,32.08
2018-04-30T08:21:49.285Z,30.84
2018-04-30T08:24:17.729Z,30.01
2018-04-30T08:26:45.404Z,31.34
2018-04-30T08:29:13.011Z,29.24
2018-04-30T08:31:42.529Z,28.94
2018-04-30T08:34:10.187Z,28.12
2018-04-30T08:36:37.878Z,27.67
2018-04-30T08:39:05.414Z,27.30
2018-04-30T08:41:33.115Z,26.24
2018-04-30T08:44:00.674Z,26.10
2018-04-30T08:46:28.234Z,26.65
2018-04-30T08:48:55.878Z,26.64
2018-04-30T08:51:23.465Z,26.51
2018-04-30T08:53:51.010Z,26.40
2018-04-30T08:56:18.618Z,25.72
2018-04-30T08:58:46.227Z,26.88
2018-04-30T09:01:14.175Z,28.80
2018-04-30T09:03:41.805Z,31.25
2018-04-30T09:06:09.415Z,32.03
2018-04-30T09:08:37.007Z,32.37
2018-04-30T09:11:04.615Z,31.80
2018-04-30T09:13:32.959Z,29.24
2018-04-30T09:16:00.502Z,31.03
2018-04-30T09:18:28.073Z,31.96
2018-04-30T09:20:56.469Z,31.13
2018-04-30T09:23:24.010Z,32.97
2018-04-30T09:25:51.664Z,34.45
2018-04-30T09:28:19.222Z,33.41
2018-04-30T09:30:46.773Z,30.93
2018-04-30T09:33:14.448Z,32.32
2018-04-30T09:35:42.810Z,33.81
2018-04-30T09:38:10.423Z,32.21
2018-04-30T09:40:39.921Z,33.15
2018-04-30T09:43:07.540Z,33.11
2018-04-30T09:45:35.180Z,32.27
2018-04-30T09:48:02.799Z,28.55
2018-04-30T09:50:30.415Z,29.72
2018-04-30T09:52:58.006Z,28.82
2018-04-30T09:55:25.552Z,28.57
2018-04-30T09:57:53.223Z,29.27
2018-04-30T10:00:20.861Z,29.77
2018-04-30T10:02:48.508Z,29.40
2018-04-30T10:05:16.214Z,29.28
2018-04-30T10:07:43.778Z,28.81
2018-04-30T10:10:11.406Z,30.44
2018-04-30T10:12:39.889Z,31.31
2018-04-30T10:15:07.458Z,30.18
2018-04-30T10:17:35.083Z,32.12
2018-04-30T10:20:02.828Z,31.61
2018-04-30T10:22:30.385Z,35.51
2018-04-30T10:24:57.939Z,35.88
2018-04-30T10:27:25.545Z,34.82
2018-04-30T10:29:54.000Z,33.78
2018-04-30T10:32:21.739Z,30.20
2018-04-30T10:34:49.367Z,28.63
2018-04-30T10:37:17.064Z,30.60
2018-04-30T10:39:45.490Z,31.69
2018-04-30T10:42:13.183Z,30.89
2018-04-30T10:44:40.811Z,33.04
2018-04-30T10:47:08.419Z,32.05
2018-04-30T10:49:36.872Z,33.16
2018-04-30T10:52:04.488Z,34.21
2018-04-30T10:54:32.807Z,31.66
2018-04-30T10:57:00.458Z,33.16
2018-04-30T10:59:29.045Z,32.27
2018-04-30T11:01:56.593Z,32.72
2018-04-30T11:04:24.165Z,32.81
2018-04-30T11:06:52.669Z,31.77
2018-04-30T11:09:20.273Z,32.92
2018-04-30T11:11:47.830Z,35.00
2018-04-30T11:14:15.475Z,33.95
2018-04-30T11:16:43.049Z,33.71
2018-04-30T11:19:10.665Z,33.43
2018-04-30T11:21:38.212Z,31.37
2018-04-30T11:24:05.764Z,32.07
2018-04-30T11:26:34.174Z,33.06
2018-04-30T11:29:02.806Z,33.02
2018-04-30T11:31:30.463Z,31.34
2018-04-30T11:33:58.014Z,29.62
2018-04-30T11:36:25.662Z,30.05
2018-04-30T11:38:53.302Z,30.63
2018-04-30T11:41:20.886Z,30.95
2018-04-30T11:43:48.591Z,31.36
2018-04-30T11:46:16.244Z,29.74
2018-04-30T11:48:43.903Z,29.63
2018-04-30T11:51:11.530Z,29.49
2018-04-30T11:53:39.111Z,29.93
2018-04-30T11:56:06.802Z,29.71
2018-04-30T11:58:35.234Z,29.34
2018-04-30T12:01:02.811Z,29.63
2018-04-30T12:03:31.351Z,31.65
2018-04-30T12:05:58.918Z,32.84
2018-04-30T12:08:26.558Z,33.37
2018-04-30T12:10:54.232Z,33.05
2018-04-30T12:13:21.764Z,34.33
2018-04-30T12:15:49.385Z,33.94
2018-04-30T12:18:17.031Z,32.77
2018-04-30T12:20:44.651Z,31.87
2018-04-30T12:23:13.228Z,30.75
2018-04-30T12:25:40.868Z,30.58
2018-04-30T12:28:08.422Z,29.25
2018-04-30T12:30:35.986Z,28.84
2018-04-30T12:33:03.679Z,28.74
2018-04-30T12:35:32.252Z,28.71
2018-04-30T12:38:00.758Z,28.65
2018-04-30T12:40:28.387Z,27.85
2018-04-30T12:42:56.037Z,27.74
2018-04-30T12:45:23.617Z,27.39
2018-04-30T12:47:51.271Z,27.97
2018-04-30T12:50:18.855Z,28.53
2018-04-30T12:52:46.531Z,28.46
2018-04-30T12:55:14.179Z,28.33
2018-04-30T12:57:41.763Z,28.78
2018-04-30T13:00:09.325Z,29.64
2018-04-30T13:02:36.957Z,30.13
2018-04-30T13:05:05.619Z,30.82
2018-04-30T13:07:33.194Z,32.15
2018-04-30T13:10:00.876Z,31.73
2018-04-30T13:12:28.442Z,31.94
2018-04-30T13:14:56.046Z,33.39
2018-04-30T13:17:24.403Z,33.80
2018-04-30T13:19:52.009Z,35.03
2018-04-30T13:22:19.786Z,35.61
2018-04-30T13:24:47.719Z,37.87
2018-04-30T13:27:15.458Z,38.01
2018-04-30T13:29:43.059Z,35.98
2018-04-30T13:32:10.607Z,34.81
2018-04-30T13:34:38.729Z,34.58
2018-04-30T13:37:06.432Z,34.42
2018-04-30T13:39:33.986Z,32.21
2018-04-30T13:42:02.471Z,31.53
2018-04-30T13:44:30.682Z,30.94
2018-04-30T13:46:59.271Z,29.73
2018-04-30T13:49:26.975Z,28.96
2018-04-30T13:51:54.772Z,28.23
2018-04-30T13:54:22.415Z,27.91
2018-04-30T13:56:50.923Z,27.31
2018-04-30T13:59:19.422Z,26.87
2018-04-30T14:01:47.138Z,26.53
2018-04-30T14:04:14.947Z,26.44
2018-04-30T14:06:42.490Z,26.48
2018-04-30T14:09:10.104Z,26.41
2018-04-30T14:11:37.646Z,26.35
2018-04-30T14:14:05.814Z,26.31
2018-04-30T14:16:33.490Z,26.10
2018-04-30T14:19:01.106Z,25.88
2018-04-30T14:21:28.705Z,25.86
2018-04-30T14:23:56.403Z,25.49
2018-04-30T14:26:24.009Z,24.99
2018-04-30T14:28:52.542Z,24.92
2018-04-30T14:31:20.146Z,24.80
2018-04-30T14:33:47.695Z,25.10
2018-04-30T14:36:15.346Z,25.38
2018-04-30T14:38:43.811Z,25.23
2018-04-30T14:41:11.462Z,24.66
2018-04-30T14:43:39.890Z,24.58
2018-04-30T14:46:07.438Z,24.64
2018-04-30T14:48:35.026Z,24.75
2018-04-30T14:51:02.570Z,24.55
2018-04-30T14:53:30.276Z,24.19
2018-04-30T14:55:57.826Z,24.22
2018-04-30T14:58:26.218Z,24.35
2018-04-30T15:00:53.830Z,24.47
2018-04-30T15:03:21.447Z,24.47
2018-04-30T15:05:49.085Z,24.33
2018-04-30T15:08:16.677Z,24.29
2018-04-30T15:10:44.225Z,24.23
2018-04-30T15:13:11.830Z,24.06
2018-04-30T15:15:39.466Z,23.52
2018-04-30T15:18:07.078Z,23.60
2018-04-30T15:20:34.691Z,23.65
2018-04-30T15:23:03.159Z,23.61
2018-04-30T15:25:30.782Z,23.53
2018-04-30T15:27:58.345Z,23.38
2018-04-30T15:30:26.336Z,23.27
2018-04-30T15:32:54.892Z,23.01
2018-04-30T15:35:23.525Z,22.84
2018-04-30T15:37:51.166Z,22.71
2018-04-30T15:40:18.779Z,22.58
2018-04-30T15:42:47.266Z,22.51
2018-04-30T15:45:15.916Z,22.47
2018-04-30T15:47:43.648Z,22.43
2018-04-30T15:50:11.231Z,22.27
2018-04-30T15:52:39.793Z,22.15
2018-04-30T15:55:07.404Z,22.04
2018-04-30T15:57:35.873Z,22.01
2018-04-30T16:00:04.075Z,21.94
2018-04-30T16:02:31.627Z,22.01
2018-04-30T16:04:59.226Z,22.12
2018-04-30T16:07:27.691Z,22.04
2018-04-30T16:09:56.254Z,21.93
2018-04-30T16:12:23.871Z,21.79
2018-04-30T16:14:52.430Z,21.96
2018-04-30T16:17:19.983Z,21.86
2018-04-30T16:19:47.590Z,21.73
2018-04-30T16:22:15.251Z,21.66
2018-04-30T16:24:42.803Z,21.50
2018-04-30T16:27:10.427Z,21.56
2018-04-30T16:29:37.980Z,21.72
2018-04-30T16:32:06.428Z,21.66
2018-04-30T16:34:33.969Z,21.53
2018-04-30T16:37:01.584Z,21.65
2018-04-30T16:39:29.150Z,21.62
2018-04-30T16:41:57.770Z,21.61
2018-04-30T16:44:25.414Z,21.68
2018-04-30T16:46:55.166Z,21.65
2018-04-30T16:49:22.714Z,21.52
2018-04-30T16:51:51.945Z,21.46
2018-04-30T16:54:20.270Z,21.40
2018-04-30T16:56:47.861Z,21.46
2018-04-30T16:59:15.578Z,21.38
2018-04-30T17:01:43.135Z,21.51
2018-04-30T17:04:11.204Z,21.41
2018-04-30T17:06:40.641Z,21.26
2018-04-30T17:09:10.237Z,21.18
2018-04-30T17:11:38.223Z,21.16
2018-04-30T17:14:05.777Z,21.05
2018-04-30T17:16:33.422Z,20.86
2018-04-30T17:19:00.966Z,20.74
2018-04-30T17:21:28.511Z,20.57
2018-04-30T17:23:56.125Z,20.61
2018-04-30T17:26:23.670Z,20.50
2018-04-30T17:28:51.275Z,20.39
2018-04-30T17:31:20.571Z,20.30
2018-04-30T17:33:48.230Z,20.24
2018-04-30T17:36:15.794Z,20.25
2018-04-30T17:38:44.362Z,20.19
2018-04-30T17:41:12.114Z,20.06
2018-04-30T17:43:39.735Z,20.10
2018-04-30T17:46:09.202Z,20.03
2018-04-30T17:48:36.875Z,20.05
2018-04-30T17:51:05.332Z,19.92
2018-04-30T17:53:33.866Z,19.87
2018-04-30T17:56:02.049Z,19.63
2018-04-30T17:58:29.726Z,19.54
2018-04-30T18:00:57.568Z,19.46
2018-04-30T18:03:25.530Z,19.46
2018-04-30T18:05:53.178Z,19.39
2018-04-30T18:08:22.257Z,19.32
2018-04-30T18:10:52.242Z,19.27
2018-04-30T18:13:20.410Z,19.12
2018-04-30T18:15:48.494Z,19.11
2018-04-30T18:18:16.337Z,19.15
2018-04-30T18:20:44.747Z,19.13
2018-04-30T18:23:12.475Z,19.20
2018-04-30T18:25:41.930Z,19.26
2018-04-30T18:28:10.244Z,19.21
2018-04-30T18:30:39.055Z,19.16
2018-04-30T18:33:08.466Z,19.16
2018-04-30T18:35:36.070Z,19.02
2018-04-30T18:38:03.681Z,19.01
2018-04-30T18:40:32.358Z,19.12
2018-04-30T18:42:59.968Z,19.10
2018-04-30T18:45:29.394Z,19.02
2018-04-30T18:47:57.846Z,18.94
2018-04-30T18:50:25.482Z,18.93
2018-04-30T18:52:53.091Z,18.82
2018-04-30T18:55:20.637Z,18.73
2018-04-30T18:57:48.257Z,18.72
2018-04-30T19:00:15.806Z,18.68
2018-04-30T19:02:43.350Z,18.60
2018-04-30T19:05:12.931Z,18.49
2018-04-30T19:07:40.531Z,18.39
2018-04-30T19:10:08.178Z,18.29
2018-04-30T19:12:35.786Z,18.34
2018-04-30T19:15:03.409Z,18.18
2018-04-30T19:17:30.998Z,18.11
2018-04-30T19:19:59.366Z,18.06
2018-04-30T19:22:27.930Z,17.99
2018-04-30T19:24:55.986Z,17.82
2018-04-30T19:27:23.534Z,17.80
2018-04-30T19:29:51.146Z,17.86
2018-04-30T19:32:18.786Z,17.99
2018-04-30T19:34:47.287Z,18.05
2018-04-30T19:37:14.903Z,18.10
2018-04-30T19:39:42.567Z,18.12
2018-04-30T19:42:10.244Z,18.01
2018-04-30T19:44:37.959Z,17.95
2018-04-30T19:47:05.559Z,17.89
2018-04-30T19:49:33.230Z,17.85
2018-04-30T19:52:00.981Z,17.88
2018-04-30T19:54:28.530Z,17.95
2018-04-30T19:56:56.108Z,17.95
2018-04-30T19:59:24.556Z,17.94
2018-04-30T20:01:54.612Z,17.96
2018-04-30T20:04:23.123Z,17.91
2018-04-30T20:06:52.187Z,17.88
2018-04-30T20:09:20.085Z,17.73
2018-04-30T20:11:47.637Z,17.77
2018-04-30T20:14:17.819Z,17.76
2018-04-30T20:16:46.993Z,17.68
2018-04-30T20:19:14.607Z,17.55
2018-04-30T20:21:42.194Z,17.44
2018-04-30T20:24:09.859Z,17.34
2018-04-30T20:26:37.535Z,17.16
2018-04-30T20:29:05.187Z,17.22
2018-04-30T20:31:32.790Z,17.20
2018-04-30T20:34:00.885Z,17.19
2018-04-30T20:36:28.454Z,17.10
2018-04-30T20:38:56.254Z,17.15
2018-04-30T20:41:24.050Z,17.13
2018-04-30T20:43:51.671Z,17.13
2018-04-30T20:46:19.272Z,17.16
2018-04-30T20:48:47.014Z,17.15
2018-04-30T20:51:15.109Z,17.14
2018-04-30T20:53:42.667Z,16.80
2018-04-30T20:56:11.257Z,16.61
2018-04-30T20:58:38.807Z,16.54
2018-04-30T21:01:06.414Z,16.45
2018-04-30T21:03:34.027Z,16.47
2018-04-30T21:06:01.719Z,16.45
2018-04-30T21:08:29.362Z,16.49
2018-04-30T21:10:57.328Z,16.51
2018-04-30T21:13:25.558Z,16.50
2018-04-30T21:15:53.170Z,16.48
2018-04-30T21:18:21.150Z,16.43
2018-04-30T21:20:48.826Z,16.38
2018-04-30T21:23:18.035Z,16.31
2018-04-30T21:25:45.662Z,16.11
2018-04-30T21:28:13.363Z,16.08
2018-04-30T21:30:41.314Z,15.92
2018-04-30T21:33:08.926Z,15.76
2018-04-30T21:35:36.575Z,15.70
2018-04-30T21:38:04.405Z,15.61
2018-04-30T21:40:32.890Z,15.50
2018-04-30T21:43:00.450Z,15.32
2018-04-30T21:45:29.191Z,15.28
2018-04-30T21:47:56.849Z,15.23
2018-04-30T21:50:24.442Z,15.20
2018-04-30T21:52:52.898Z,15.21
2018-04-30T21:55:20.448Z,15.24
2018-04-30T21:57:48.092Z,15.25
2018-04-30T22:00:15.723Z,15.05
2018-04-30T22:02:43.294Z,14.98
2018-04-30T22:05:10.895Z,14.85
2018-04-30T22:07:38.454Z,14.75
2018-04-30T22:10:06.045Z,14.68
2018-04-30T22:12:33.598Z,14.69
2018-04-30T22:15:01.190Z,14.65
2018-04-30T22:17:28.755Z,14.55
2018-04-30T22:19:56.314Z,14.42
2018-04-30T22:22:23.874Z,14.43
2018-04-30T22:24:51.493Z,14.67
2018-04-30T22:27:19.107Z,14.47
2018-04-30T22:29:46.657Z,14.42
2018-04-30T22:32:15.193Z,14.39
2018-04-30T22:34:42.806Z,14.64
2018-04-30T22:37:10.450Z,14.51
2018-04-30T22:39:37.993Z,14.35
2018-04-30T22:42:05.598Z,14.38
2018-04-30T22:44:33.274Z,14.55
2018-04-30T22:47:00.886Z,14.71
2018-04-30T22:49:28.437Z,14.61
2018-04-30T22:51:56.050Z,14.60
2018-04-30T22:54:23.601Z,14.72
2018-04-30T22:56:51.222Z,14.83
2018-04-30T22:59:18.830Z,14.54
2018-04-30T23:01:46.373Z,14.46
2018-04-30T23:04:14.195Z,14.28
2018-04-30T23:06:41.807Z,14.12
2018-04-30T23:09:09.359Z,13.92
2018-04-30T23:11:36.966Z,13.75
2018-04-30T23:14:04.510Z,13.83
2018-04-30T23:16:32.127Z,13.76
2018-04-30T23:18:59.738Z,13.88
2018-04-30T23:21:27.346Z,14.03
2018-04-30T23:23:54.995Z,13.85
2018-04-30T23:26:22.658Z,13.76
2018-04-30T23:28:50.209Z,13.73
2018-04-30T23:31:19.450Z,13.60
2018-04-30T23:33:47.042Z,13.53
2018-04-30T23:36:14.585Z,13.66
2018-04-30T23:38:42.176Z,13.74
2018-04-30T23:41:10.622Z,13.87
2018-04-30T23:43:38.255Z,13.95
2018-04-30T23:46:05.810Z,14.03
2018-04-30T23:48:33.366Z,14.03
2018-04-30T23:51:00.969Z,14.02
2018-04-30T23:53:28.562Z,13.90
2018-04-30T23:55:56.614Z,13.93
2018-04-30T23:58:24.229Z,13.92
